createdAt,value
2023-01-17T00:00:23.304Z,79.10
2023-01-17T00:02:55.064Z,79.00
2023-01-17T00:05:46.854Z,79.10
2023-01-17T00:08:39.686Z,79.00
2023-01-17T00:11:19.155Z,79.00
2023-01-17T00:13:50.473Z,78.80
2023-01-17T00:16:20.168Z,78.80
2023-01-17T00:19:07.094Z,78.70
2023-01-17T00:21:55.905Z,78.40
2023-01-17T00:24:42.350Z,78.10
2023-01-17T00:27:13.226Z,78.00
2023-01-17T00:29:46.005Z,77.80
2023-01-17T00:32:16.811Z,77.40
2023-01-17T00:34:47.272Z,77.50
2023-01-17T00:37:14.161Z,77.40
2023-01-17T00:39:45.134Z,77.30
2023-01-17T00:42:11.981Z,77.40
2023-01-17T00:44:57.871Z,77.10
2023-01-17T00:47:48.725Z,76.90
2023-01-17T00:50:41.066Z,76.80
2023-01-17T00:53:27.366Z,76.90
2023-01-17T00:56:14.187Z,76.80
2023-01-17T00:59:02.394Z,77.00
2023-01-17T01:01:48.391Z,77.30
2023-01-17T01:04:33.779Z,77.20
2023-01-17T01:07:23.309Z,77.50
2023-01-17T01:10:08.699Z,77.40
2023-01-17T01:12:56.061Z,77.50
2023-01-17T01:15:42.436Z,77.40
2023-01-17T01:18:30.246Z,77.50
2023-01-17T01:21:20.861Z,77.50
2023-01-17T01:24:10.303Z,77.30
2023-01-17T01:26:57.297Z,77.20
2023-01-17T01:29:43.219Z,77.20
2023-01-17T01:32:31.216Z,77.40
2023-01-17T01:35:03.030Z,77.60
2023-01-17T01:37:33.831Z,77.80
2023-01-17T01:40:07.121Z,77.90
2023-01-17T01:42:40.141Z,77.80
2023-01-17T01:48:17.041Z,77.70
2023-01-17T01:50:44.943Z,77.60
2023-01-17T01:53:14.359Z,77.70
2023-01-17T01:55:50.787Z,77.70
2023-01-17T01:58:25.208Z,77.30
2023-01-17T02:06:49.845Z,77.30
2023-01-17T02:09:19.131Z,77.40
2023-01-17T02:12:01.441Z,77.10
2023-01-17T02:17:14.728Z,77.30
2023-01-17T02:20:05.203Z,77.30
2023-01-17T02:26:15.010Z,77.20
2023-01-17T02:28:52.221Z,77.50
2023-01-17T02:31:41.025Z,77.00
2023-01-17T02:34:33.379Z,77.40
2023-01-17T02:37:05.934Z,77.20
2023-01-17T02:39:38.926Z,77.20
2023-01-17T02:42:12.405Z,77.10
2023-01-17T02:44:52.746Z,77.10
2023-01-17T02:47:27.569Z,76.90
2023-01-17T02:53:00.169Z,76.80
2023-01-17T02:55:35.640Z,76.80
2023-01-17T02:58:08.712Z,76.80
2023-01-17T03:00:48.028Z,76.80
2023-01-17T03:03:32.506Z,76.70
2023-01-17T03:06:13.396Z,77.00
2023-01-17T03:09:11.601Z,77.10
2023-01-17T03:14:21.411Z,77.40
2023-01-17T03:16:49.958Z,77.70
2023-01-17T03:19:34.027Z,78.00
2023-01-17T03:22:13.139Z,78.20
2023-01-17T03:24:43.469Z,78.20
2023-01-17T03:27:22.991Z,78.20
2023-01-17T03:30:16.151Z,78.50
2023-01-17T03:33:27.351Z,78.50
2023-01-17T03:36:03.698Z,78.20
2023-01-17T03:38:31.915Z,78.20
2023-01-17T03:41:06.334Z,78.20
2023-01-17T03:43:35.855Z,78.10
2023-01-17T03:46:09.245Z,78.10
2023-01-17T03:48:45.350Z,78.50
2023-01-17T03:51:15.304Z,78.80
2023-01-17T03:53:46.745Z,79.00
2023-01-17T03:56:16.692Z,79.10
2023-01-17T03:58:45.221Z,79.30
2023-01-17T04:01:23.101Z,79.20
2023-01-17T04:03:54.036Z,79.30
2023-01-17T04:06:24.666Z,79.30
2023-01-17T04:08:55.795Z,79.20
2023-01-17T04:11:24.101Z,79.30
2023-01-17T04:13:52.382Z,79.10
2023-01-17T04:16:25.329Z,79.10
2023-01-17T04:18:53.476Z,79.00
2023-01-17T04:21:23.255Z,79.10
2023-01-17T04:23:53.966Z,79.20
2023-01-17T04:26:28.501Z,79.40
2023-01-17T04:28:58.952Z,79.50
2023-01-17T04:31:41.429Z,79.60
2023-01-17T04:34:10.935Z,79.70
2023-01-17T04:36:47.824Z,79.60
2023-01-17T04:39:16.515Z,79.80
2023-01-17T04:45:10.042Z,79.60
2023-01-17T04:47:42.086Z,79.50
2023-01-17T04:53:30.750Z,79.90
2023-01-17T04:56:13.891Z,80.20
2023-01-17T05:02:08.486Z,80.50
2023-01-17T05:07:29.935Z,80.80
2023-01-17T05:10:18.959Z,80.90
2023-01-17T05:15:46.852Z,80.90
2023-01-17T05:18:20.472Z,80.90
2023-01-17T05:20:59.286Z,81.00
2023-01-17T05:23:31.166Z,81.00
2023-01-17T05:26:00.691Z,81.10
2023-01-17T05:28:30.563Z,81.20
2023-01-17T05:33:53.177Z,81.40
2023-01-17T05:36:24.260Z,81.30
2023-01-17T05:41:43.266Z,81.40
2023-01-17T05:44:16.949Z,81.50
2023-01-17T05:46:56.445Z,81.40
2023-01-17T05:49:45.843Z,81.70
2023-01-17T05:52:41.934Z,81.40
2023-01-17T05:55:11.238Z,81.40
2023-01-17T05:57:49.110Z,81.50
2023-01-17T06:00:33.729Z,81.60
2023-01-17T06:03:25.296Z,81.60
2023-01-17T06:05:55.818Z,81.90
2023-01-17T06:08:24.976Z,81.90
2023-01-17T06:10:54.112Z,82.00
2023-01-17T06:13:24.941Z,82.10
2023-01-17T06:15:53.691Z,82.00
2023-01-17T06:18:32.455Z,82.10
2023-01-17T06:21:05.034Z,82.10
2023-01-17T06:32:10.212Z,82.60
2023-01-17T06:34:58.269Z,82.60
2023-01-17T06:37:27.757Z,82.70
2023-01-17T06:43:05.865Z,83.00
2023-01-17T06:45:44.200Z,83.00
2023-01-17T06:48:18.373Z,83.10
2023-01-17T06:53:46.063Z,83.10
2023-01-17T07:02:01.770Z,83.00
2023-01-17T07:04:33.217Z,82.80
2023-01-17T07:07:08.115Z,82.70
2023-01-17T07:09:38.666Z,82.70
2023-01-17T07:12:12.926Z,82.60
2023-01-17T07:14:45.340Z,82.60
2023-01-17T07:17:20.021Z,82.60
2023-01-17T07:25:35.325Z,82.40
2023-01-17T07:28:08.246Z,82.30
2023-01-17T07:30:38.258Z,82.30
2023-01-17T07:33:07.045Z,82.30
2023-01-17T07:35:38.890Z,82.30
2023-01-17T07:40:42.319Z,82.30
2023-01-17T07:43:17.051Z,82.10
2023-01-17T07:45:46.241Z,82.30
2023-01-17T07:50:57.585Z,81.20
2023-01-17T07:53:27.606Z,80.30
2023-01-17T07:55:56.416Z,80.10
2023-01-17T07:58:30.078Z,79.80
2023-01-17T08:01:02.157Z,78.50
2023-01-17T08:03:32.392Z,78.10
2023-01-17T08:06:00.971Z,77.90
2023-01-17T08:11:36.576Z,76.20
2023-01-17T08:14:07.351Z,74.90
2023-01-17T08:16:57.062Z,74.00
2023-01-17T08:19:25.423Z,73.60
2023-01-17T08:21:53.821Z,73.70
2023-01-17T08:24:22.374Z,72.80
2023-01-17T08:26:51.386Z,72.30
2023-01-17T08:32:11.026Z,67.80
2023-01-17T08:34:46.616Z,65.30
2023-01-17T08:39:42.240Z,62.60
2023-01-17T08:42:10.356Z,63.40
2023-01-17T08:44:42.224Z,63.70
2023-01-17T08:47:10.622Z,62.50
2023-01-17T08:49:39.379Z,60.90
2023-01-17T08:52:13.272Z,61.00
2023-01-17T08:54:41.619Z,61.40
2023-01-17T08:57:10.525Z,60.50
2023-01-17T08:59:39.783Z,59.20
2023-01-17T09:02:15.832Z,57.40
2023-01-17T09:04:44.834Z,55.70
2023-01-17T09:07:14.845Z,54.90
2023-01-17T09:09:43.709Z,55.80
2023-01-17T09:12:12.913Z,56.20
2023-01-17T09:14:41.453Z,57.10
2023-01-17T09:17:09.726Z,57.70
2023-01-17T09:19:39.725Z,58.80
2023-01-17T09:22:10.250Z,59.50
2023-01-17T09:24:40.624Z,58.20
2023-01-17T09:27:10.816Z,60.40
2023-01-17T09:29:39.083Z,60.10
2023-01-17T09:32:07.264Z,60.00
2023-01-17T09:34:37.592Z,62.20
2023-01-17T09:37:05.985Z,60.50
2023-01-17T09:39:34.314Z,60.20
2023-01-17T09:45:01.568Z,57.90
2023-01-17T09:47:30.698Z,57.20
2023-01-17T09:50:25.630Z,54.80
2023-01-17T09:53:01.235Z,55.80
2023-01-17T09:55:33.595Z,57.70
2023-01-17T09:58:06.648Z,57.10
2023-01-17T10:00:43.165Z,54.80
2023-01-17T10:03:21.526Z,57.20
2023-01-17T10:06:00.013Z,57.00
2023-01-17T10:08:34.687Z,56.50
2023-01-17T10:11:13.716Z,57.80
2023-01-17T10:13:51.183Z,56.80
2023-01-17T10:16:35.578Z,57.10
2023-01-17T10:19:17.405Z,57.70
2023-01-17T10:22:07.689Z,56.50
2023-01-17T10:24:56.632Z,57.10
2023-01-17T10:27:26.712Z,58.90
2023-01-17T10:29:55.455Z,60.60
2023-01-17T10:32:29.568Z,60.30
2023-01-17T10:34:59.046Z,58.70
2023-01-17T10:37:28.988Z,57.00
2023-01-17T10:39:59.600Z,55.30
2023-01-17T10:42:30.348Z,55.80
2023-01-17T10:45:01.476Z,57.30
2023-01-17T10:47:34.518Z,56.50
2023-01-17T10:50:05.221Z,54.00
2023-01-17T10:52:37.955Z,54.90
2023-01-17T10:55:18.843Z,55.60
2023-01-17T10:57:49.597Z,57.10
2023-01-17T11:00:33.363Z,57.40
2023-01-17T11:03:03.929Z,55.90
2023-01-17T11:05:35.326Z,55.60
2023-01-17T11:08:04.445Z,55.60
2023-01-17T11:10:48.056Z,55.00
2023-01-17T11:13:24.304Z,54.90
2023-01-17T11:15:54.088Z,52.80
2023-01-17T11:18:24.952Z,52.80
2023-01-17T11:20:53.233Z,55.30
2023-01-17T11:23:23.740Z,57.90
2023-01-17T11:25:53.112Z,60.90
2023-01-17T11:28:23.314Z,62.10
2023-01-17T11:30:55.838Z,62.40
2023-01-17T11:33:50.442Z,63.80
2023-01-17T11:36:21.864Z,58.50
2023-01-17T11:39:05.090Z,55.40
2023-01-17T11:41:34.515Z,53.90
2023-01-17T11:44:04.159Z,54.70
2023-01-17T11:46:33.228Z,54.60
2023-01-17T11:49:11.618Z,53.60
2023-01-17T11:51:45.275Z,51.90
2023-01-17T11:54:18.144Z,51.00
2023-01-17T11:57:01.168Z,50.50
2023-01-17T11:59:31.990Z,49.30
2023-01-17T12:02:24.430Z,49.20
2023-01-17T12:05:05.393Z,48.70
2023-01-17T12:07:40.716Z,48.70
2023-01-17T12:10:09.920Z,47.50
2023-01-17T12:13:05.168Z,46.60
2023-01-17T12:15:44.109Z,46.90
2023-01-17T12:18:22.082Z,46.00
2023-01-17T12:20:58.380Z,47.00
2023-01-17T12:23:45.945Z,47.60
2023-01-17T12:26:24.629Z,47.40
2023-01-17T12:28:59.210Z,47.90
2023-01-17T12:31:33.424Z,48.20
2023-01-17T12:34:14.374Z,48.30
2023-01-17T12:39:35.813Z,47.80
2023-01-17T12:42:13.081Z,48.00
2023-01-17T12:44:51.947Z,48.90
2023-01-17T12:47:21.368Z,47.90
2023-01-17T12:49:55.456Z,47.10
2023-01-17T12:52:31.261Z,46.60
2023-01-17T12:55:05.041Z,46.10
2023-01-17T12:57:45.902Z,47.40
2023-01-17T13:00:20.844Z,47.50
2023-01-17T13:02:53.193Z,47.40
2023-01-17T13:05:23.848Z,47.60
2023-01-17T13:07:55.321Z,47.70
2023-01-17T13:10:30.998Z,48.80
2023-01-17T13:13:11.619Z,48.90
2023-01-17T13:15:42.514Z,49.40
2023-01-17T13:18:14.715Z,49.00
2023-01-17T13:20:53.119Z,48.20
2023-01-17T13:23:28.975Z,47.40
2023-01-17T13:25:59.064Z,45.90
2023-01-17T13:28:35.821Z,44.10
2023-01-17T13:31:12.931Z,45.00
2023-01-17T13:34:01.030Z,46.30
2023-01-17T13:36:38.453Z,47.20
2023-01-17T13:39:21.256Z,47.10
2023-01-17T13:41:54.936Z,46.20
2023-01-17T13:44:30.460Z,45.40
2023-01-17T13:47:00.815Z,45.20
2023-01-17T13:49:34.305Z,45.70
2023-01-17T13:52:07.773Z,46.80
2023-01-17T13:54:48.139Z,47.20
2023-01-17T13:57:36.984Z,48.50
2023-01-17T14:00:32.686Z,50.00
2023-01-17T14:03:06.537Z,52.90
2023-01-17T14:06:00.741Z,55.40
2023-01-17T14:08:29.176Z,56.10
2023-01-17T14:11:09.793Z,57.30
2023-01-17T14:13:39.788Z,58.90
2023-01-17T14:16:10.272Z,59.70
2023-01-17T14:18:41.935Z,60.00
2023-01-17T14:21:14.501Z,60.70
2023-01-17T14:23:59.425Z,61.10
2023-01-17T14:26:39.292Z,61.20
2023-01-17T14:29:25.294Z,61.00
2023-01-17T14:32:00.807Z,62.40
2023-01-17T14:34:35.833Z,63.10
2023-01-17T14:37:05.402Z,64.30
2023-01-17T14:39:44.124Z,64.50
2023-01-17T14:42:17.720Z,65.40
2023-01-17T14:44:50.420Z,66.30
2023-01-17T14:47:18.985Z,67.50
2023-01-17T14:49:49.398Z,67.70
2023-01-17T14:52:18.136Z,68.70
2023-01-17T14:54:49.847Z,68.90
2023-01-17T14:57:25.632Z,69.90
2023-01-17T15:00:10.938Z,70.10
2023-01-17T15:02:41.430Z,70.30
2023-01-17T15:05:13.955Z,70.90
2023-01-17T15:07:43.195Z,71.30
2023-01-17T15:10:15.349Z,71.40
2023-01-17T15:12:49.483Z,71.40
2023-01-17T15:15:28.760Z,72.00
2023-01-17T15:18:16.179Z,72.00
2023-01-17T15:20:48.902Z,72.60
2023-01-17T15:23:18.645Z,72.60
2023-01-17T15:25:47.782Z,72.50
2023-01-17T15:28:16.934Z,72.70
2023-01-17T15:31:00.339Z,73.10
2023-01-17T15:33:28.690Z,73.30
2023-01-17T15:36:02.178Z,73.50
2023-01-17T15:38:38.558Z,73.90
2023-01-17T15:41:12.741Z,74.00
2023-01-17T15:43:42.335Z,73.80
2023-01-17T15:46:21.809Z,73.90
2023-01-17T15:48:51.811Z,74.20
2023-01-17T15:51:34.917Z,74.40
2023-01-17T15:54:17.836Z,74.30
2023-01-17T15:56:47.215Z,74.40
2023-01-17T15:59:30.403Z,74.40
2023-01-17T16:01:58.938Z,74.50
2023-01-17T16:04:28.935Z,74.60
2023-01-17T16:07:10.616Z,74.60
2023-01-17T16:09:44.473Z,74.70
2023-01-17T16:12:12.674Z,74.70
2023-01-17T16:14:59.532Z,74.70
2023-01-17T16:17:30.379Z,74.90
2023-01-17T16:20:01.939Z,74.80
2023-01-17T16:22:31.637Z,74.90
2023-01-17T16:25:00.271Z,75.00
2023-01-17T16:27:28.888Z,75.20
2023-01-17T16:29:58.151Z,75.20
2023-01-17T16:32:28.428Z,75.20
2023-01-17T16:34:56.530Z,75.40
2023-01-17T16:37:24.868Z,75.40
2023-01-17T16:39:54.432Z,75.40
2023-01-17T16:42:22.700Z,75.70
2023-01-17T16:44:51.028Z,75.90
2023-01-17T16:47:19.037Z,76.00
2023-01-17T16:49:47.442Z,76.10
2023-01-17T16:52:15.387Z,76.20
2023-01-17T16:54:43.538Z,76.10
2023-01-17T16:57:15.910Z,76.30
2023-01-17T16:59:50.650Z,76.50
2023-01-17T17:02:20.116Z,76.50
2023-01-17T17:04:49.037Z,76.40
2023-01-17T17:07:17.581Z,76.70
2023-01-17T17:09:45.716Z,76.60
2023-01-17T17:12:15.416Z,76.60
2023-01-17T17:14:43.642Z,76.70
2023-01-17T17:17:11.832Z,76.80
2023-01-17T17:19:40.459Z,76.80
2023-01-17T17:22:08.757Z,76.80
2023-01-17T17:24:37.126Z,76.80
2023-01-17T17:27:07.107Z,76.90
2023-01-17T17:29:36.620Z,77.10
2023-01-17T17:32:07.426Z,77.20
2023-01-17T17:34:36.679Z,77.10
2023-01-17T17:37:05.167Z,77.40
2023-01-17T17:39:34.531Z,77.30
2023-01-17T17:42:02.768Z,77.30
2023-01-17T17:44:31.444Z,77.30
2023-01-17T17:47:01.351Z,77.30
2023-01-17T17:49:29.603Z,77.50
2023-01-17T17:52:03.914Z,77.40
2023-01-17T17:54:33.267Z,77.60
2023-01-17T17:57:02.082Z,77.60
2023-01-17T17:59:32.338Z,77.40
2023-01-17T18:02:02.340Z,77.30
2023-01-17T18:04:30.616Z,77.00
2023-01-17T18:07:01.767Z,77.00
2023-01-17T18:09:35.543Z,77.20
2023-01-17T18:12:05.785Z,77.30
2023-01-17T18:14:35.136Z,77.40
2023-01-17T18:17:05.957Z,77.40
2023-01-17T18:19:34.408Z,77.40
2023-01-17T18:22:07.628Z,77.30
2023-01-17T18:24:39.075Z,77.50
2023-01-17T18:27:07.280Z,77.50
2023-01-17T18:29:40.729Z,77.40
2023-01-17T18:32:16.795Z,77.30
2023-01-17T18:34:47.609Z,77.20
2023-01-17T18:37:20.699Z,77.20
2023-01-17T18:39:48.968Z,77.30
2023-01-17T18:42:18.580Z,77.30
2023-01-17T18:44:48.583Z,77.10
2023-01-17T18:47:19.342Z,76.80
2023-01-17T18:49:53.913Z,76.60
2023-01-17T18:52:22.096Z,76.50
2023-01-17T18:54:50.427Z,76.70
2023-01-17T18:57:18.916Z,76.70
2023-01-17T18:59:48.885Z,76.60
2023-01-17T19:02:41.560Z,76.50
2023-01-17T19:05:12.245Z,76.40
2023-01-17T19:07:41.524Z,76.30
2023-01-17T19:10:10.304Z,76.40
2023-01-17T19:12:38.615Z,76.40
2023-01-17T19:15:09.560Z,76.40
2023-01-17T19:17:39.345Z,76.40
2023-01-17T19:20:09.205Z,76.50
2023-01-17T19:22:39.065Z,76.70
2023-01-17T19:25:07.969Z,76.80
2023-01-17T19:27:37.492Z,76.90
2023-01-17T19:30:06.296Z,76.90
2023-01-17T19:32:34.626Z,76.80
2023-01-17T19:35:04.760Z,76.80
2023-01-17T19:37:33.062Z,77.00
2023-01-17T19:40:01.402Z,77.10
2023-01-17T19:42:30.264Z,77.00
2023-01-17T19:44:58.655Z,76.80
2023-01-17T19:47:26.945Z,76.90
2023-01-17T19:49:55.069Z,77.10
2023-01-17T19:52:26.806Z,77.00
2023-01-17T19:54:55.205Z,77.00
2023-01-17T19:57:26.533Z,76.80
2023-01-17T19:59:56.873Z,76.80
2023-01-17T20:02:27.626Z,76.60
2023-01-17T20:04:56.664Z,76.60
2023-01-17T20:07:26.049Z,76.60
2023-01-17T20:09:56.155Z,76.60
2023-01-17T20:12:24.133Z,76.70
2023-01-17T20:14:57.492Z,76.60
2023-01-17T20:17:25.810Z,76.40
2023-01-17T20:19:54.050Z,76.30
2023-01-17T20:22:22.192Z,76.10
2023-01-17T20:24:52.466Z,76.20
2023-01-17T20:27:29.668Z,76.10
2023-01-17T20:30:05.380Z,76.00
2023-01-17T20:35:26.049Z,76.00
2023-01-17T20:37:55.135Z,76.00
2023-01-17T20:40:25.397Z,76.20
2023-01-17T20:42:55.528Z,76.40
2023-01-17T20:45:24.040Z,76.30
2023-01-17T20:47:52.776Z,76.30
2023-01-17T20:50:20.891Z,76.70
2023-01-17T20:52:49.555Z,76.60
2023-01-17T20:55:18.451Z,76.90
2023-01-17T20:57:48.009Z,77.00
2023-01-17T21:00:16.669Z,77.20
2023-01-17T21:02:46.599Z,77.30
2023-01-17T21:05:14.933Z,77.40
2023-01-17T21:07:42.960Z,77.40
2023-01-17T21:10:13.329Z,77.70
2023-01-17T21:12:42.481Z,77.80
2023-01-17T21:15:19.083Z,77.90
2023-01-17T21:17:52.446Z,78.20
2023-01-17T21:20:20.533Z,78.40
2023-01-17T21:22:48.924Z,78.50
2023-01-17T21:25:17.664Z,78.50
2023-01-17T21:27:46.258Z,78.60
2023-01-17T21:30:16.332Z,78.60
2023-01-17T21:32:44.897Z,78.70
2023-01-17T21:35:15.514Z,78.70
2023-01-17T21:37:52.269Z,78.80
2023-01-17T21:40:21.697Z,78.90
2023-01-17T21:42:52.065Z,78.90
2023-01-17T21:45:21.689Z,78.80
2023-01-17T21:47:49.920Z,78.90
2023-01-17T21:50:32.419Z,78.80
2023-01-17T21:53:01.392Z,78.80
2023-01-17T21:55:49.958Z,79.00
2023-01-17T21:58:36.024Z,78.70
2023-01-17T22:01:17.703Z,78.80
2023-01-17T22:03:48.630Z,78.80
2023-01-17T22:06:17.227Z,79.00
2023-01-17T22:08:46.076Z,79.10
2023-01-17T22:11:18.281Z,79.00
2023-01-17T22:13:46.751Z,78.90
2023-01-17T22:16:17.826Z,78.90
2023-01-17T22:18:46.394Z,78.90
2023-01-17T22:21:17.875Z,78.90
2023-01-17T22:23:47.613Z,78.90
2023-01-17T22:26:16.010Z,78.90
2023-01-17T22:28:45.603Z,78.90
2023-01-17T22:31:15.555Z,79.00
2023-01-17T22:33:49.741Z,78.80
2023-01-17T22:36:18.304Z,78.90
2023-01-17T22:38:50.603Z,78.70
2023-01-17T22:41:21.257Z,78.90
2023-01-17T22:43:51.615Z,78.80
2023-01-17T22:46:21.111Z,78.80
2023-01-17T22:48:53.926Z,78.80
2023-01-17T22:51:23.208Z,78.70
2023-01-17T22:53:55.167Z,78.80
2023-01-17T22:56:27.940Z,78.90
2023-01-17T22:58:57.658Z,79.00
2023-01-17T23:01:29.361Z,78.90
2023-01-17T23:04:02.748Z,78.90
2023-01-17T23:06:40.537Z,79.00
2023-01-17T23:09:10.666Z,78.90
2023-01-17T23:11:44.092Z,78.80
2023-01-17T23:14:15.841Z,79.00
2023-01-17T23:17:03.956Z,78.90
2023-01-17T23:19:34.976Z,78.80
2023-01-17T23:22:19.618Z,78.80
2023-01-17T23:24:49.278Z,78.70
2023-01-17T23:27:35.621Z,78.90
2023-01-17T23:30:07.394Z,78.90
2023-01-17T23:32:35.891Z,78.90
2023-01-17T23:35:06.179Z,79.00
2023-01-17T23:37:52.807Z,78.80
2023-01-17T23:40:30.894Z,78.70
2023-01-17T23:43:21.651Z,78.60
2023-01-17T23:45:50.668Z,78.60
2023-01-17T23:48:26.252Z,78.70
2023-01-17T23:51:02.610Z,78.80
2023-01-17T23:53:34.044Z,78.80
2023-01-17T23:56:05.916Z,78.90
2023-01-17T23:58:34.096Z,78.70
